createdAt,value
2023-03-22T00:02:07.098Z,47.80
2023-03-22T00:04:36.525Z,51.10
2023-03-22T00:07:05.473Z,46.90
2023-03-22T00:09:34.549Z,47.40
2023-03-22T00:12:05.400Z,50.80
2023-03-22T00:14:37.201Z,47.60
2023-03-22T00:17:08.888Z,50.00
2023-03-22T00:19:44.470Z,52.70
2023-03-22T00:22:16.553Z,52.00
2023-03-22T00:24:49.910Z,44.70
2023-03-22T00:27:19.523Z,50.00
2023-03-22T00:29:49.484Z,49.20
2023-03-22T00:32:19.656Z,45.20
2023-03-22T00:34:50.355Z,52.00
2023-03-22T00:37:22.915Z,46.20
2023-03-22T00:39:55.584Z,49.20
2023-03-22T00:42:26.784Z,56.40
2023-03-22T00:44:57.318Z,46.50
2023-03-22T00:47:27.198Z,47.50
2023-03-22T00:49:57.963Z,45.90
2023-03-22T00:52:27.925Z,45.30
2023-03-22T00:54:58.633Z,50.10
2023-03-22T00:57:28.587Z,43.50
2023-03-22T00:59:59.532Z,42.50
2023-03-22T01:02:30.323Z,47.80
2023-03-22T01:05:03.626Z,49.60
2023-03-22T01:07:34.437Z,46.00
2023-03-22T01:10:07.440Z,50.50
2023-03-22T01:12:38.222Z,50.10
2023-03-22T01:15:09.816Z,49.70
2023-03-22T01:17:39.920Z,47.70
2023-03-22T01:20:12.233Z,46.90
2023-03-22T01:22:42.211Z,49.70
2023-03-22T01:25:16.104Z,52.30
2023-03-22T01:27:47.004Z,49.20
2023-03-22T01:30:17.599Z,48.80
2023-03-22T01:32:52.489Z,46.40
2023-03-22T01:35:25.173Z,53.10
2023-03-22T01:37:57.023Z,46.10
2023-03-22T01:40:27.946Z,49.50
2023-03-22T01:42:59.665Z,48.90
2023-03-22T01:45:51.260Z,45.90
2023-03-22T01:48:36.204Z,48.30
2023-03-22T01:51:19.185Z,51.10
2023-03-22T01:53:54.182Z,49.80
2023-03-22T01:56:27.434Z,45.90
2023-03-22T01:58:58.742Z,48.90
2023-03-22T02:01:29.672Z,47.10
2023-03-22T02:04:34.446Z,44.00
2023-03-22T02:07:10.821Z,44.90
2023-03-22T02:09:43.580Z,49.20
2023-03-22T02:12:45.111Z,50.60
2023-03-22T02:15:27.097Z,46.70
2023-03-22T02:18:24.386Z,44.30
2023-03-22T02:21:32.971Z,45.60
2023-03-22T02:24:10.808Z,48.40
2023-03-22T02:27:07.606Z,48.90
2023-03-22T02:29:47.982Z,49.40
2023-03-22T02:32:17.456Z,45.80
2023-03-22T02:34:48.939Z,47.50
2023-03-22T02:37:20.673Z,44.00
2023-03-22T02:40:11.691Z,48.30
2023-03-22T02:42:55.467Z,47.20
2023-03-22T02:45:35.072Z,47.40
2023-03-22T02:48:17.822Z,55.50
2023-03-22T02:50:56.945Z,45.60
2023-03-22T02:53:30.121Z,44.30
2023-03-22T02:56:05.653Z,45.30
2023-03-22T02:58:46.995Z,48.30
2023-03-22T03:01:30.230Z,48.10
2023-03-22T03:04:07.536Z,44.30
2023-03-22T03:06:47.450Z,45.50
2023-03-22T03:09:22.079Z,44.80
2023-03-22T03:11:57.511Z,47.50
2023-03-22T03:14:30.779Z,47.60
2023-03-22T03:17:17.427Z,42.00
2023-03-22T03:20:05.102Z,44.70
2023-03-22T03:22:50.823Z,43.80
2023-03-22T03:25:49.426Z,45.90
2023-03-22T03:28:52.198Z,46.90
2023-03-22T03:31:27.660Z,47.00
2023-03-22T03:34:19.104Z,46.70
2023-03-22T03:36:55.395Z,45.80
2023-03-22T03:39:28.577Z,51.60
2023-03-22T03:42:00.241Z,49.70
2023-03-22T03:44:34.237Z,45.70
2023-03-22T03:47:05.359Z,41.70
2023-03-22T03:49:36.463Z,48.80
2023-03-22T03:52:10.245Z,46.10
2023-03-22T03:54:44.948Z,52.00
2023-03-22T03:57:17.953Z,48.90
2023-03-22T03:59:50.876Z,47.20
2023-03-22T04:02:21.241Z,48.50
2023-03-22T04:04:51.717Z,40.20
2023-03-22T04:07:24.663Z,48.40
2023-03-22T04:09:55.824Z,41.20
2023-03-22T04:12:29.436Z,46.70
2023-03-22T04:14:58.555Z,49.60
2023-03-22T04:17:34.424Z,50.00
2023-03-22T04:20:08.047Z,44.60
2023-03-22T04:22:41.111Z,46.10
2023-03-22T04:25:16.251Z,45.10
2023-03-22T04:27:47.458Z,44.00
2023-03-22T04:30:22.194Z,51.10
2023-03-22T04:32:52.178Z,46.60
2023-03-22T04:35:24.426Z,50.00
2023-03-22T04:37:55.110Z,43.40
2023-03-22T04:40:29.434Z,49.10
2023-03-22T04:43:01.267Z,48.10
2023-03-22T04:45:37.404Z,48.20
2023-03-22T04:50:42.014Z,42.60
2023-03-22T04:53:12.677Z,48.40
2023-03-22T04:55:44.811Z,44.70
2023-03-22T04:58:17.875Z,45.60
2023-03-22T05:00:49.528Z,45.20
2023-03-22T05:03:22.260Z,44.40
2023-03-22T05:05:55.547Z,46.60
2023-03-22T05:08:26.726Z,47.60
2023-03-22T05:10:57.113Z,52.90
2023-03-22T05:13:27.574Z,44.60
2023-03-22T05:15:59.382Z,50.70
2023-03-22T05:18:28.807Z,45.50
2023-03-22T05:20:58.525Z,47.70
2023-03-22T05:23:27.564Z,48.30
2023-03-22T05:25:58.939Z,45.10
2023-03-22T05:28:31.048Z,49.10
2023-03-22T05:31:05.734Z,48.30
2023-03-22T05:33:37.268Z,49.00
2023-03-22T05:36:08.161Z,49.90
2023-03-22T05:38:37.118Z,48.10
2023-03-22T05:41:06.758Z,53.60
2023-03-22T05:43:35.895Z,45.50
2023-03-22T05:46:13.402Z,52.10
2023-03-22T05:48:43.135Z,49.10
2023-03-22T05:51:17.917Z,52.80
2023-03-22T05:53:50.236Z,51.10
2023-03-22T05:56:22.215Z,48.00
2023-03-22T05:58:52.600Z,52.90
2023-03-22T06:01:21.611Z,57.30
2023-03-22T06:03:51.205Z,51.30
2023-03-22T06:06:20.413Z,55.10
2023-03-22T06:08:51.019Z,49.60
2023-03-22T06:11:21.277Z,52.10
2023-03-22T06:13:49.895Z,53.80
2023-03-22T06:16:19.160Z,48.60
2023-03-22T06:18:48.188Z,52.80
2023-03-22T06:21:19.019Z,49.80
2023-03-22T06:23:51.430Z,53.20
2023-03-22T06:26:26.905Z,53.90
2023-03-22T06:28:57.249Z,49.10
2023-03-22T06:31:27.786Z,52.60
2023-03-22T06:34:00.292Z,54.90
2023-03-22T06:36:33.384Z,54.90
2023-03-22T06:39:06.182Z,52.90
2023-03-22T06:44:10.659Z,52.50
2023-03-22T06:46:44.346Z,52.70
2023-03-22T06:49:16.410Z,48.90
2023-03-22T06:51:50.575Z,49.10
2023-03-22T06:54:31.084Z,55.10
2023-03-22T06:57:06.999Z,48.40
2023-03-22T06:59:45.451Z,51.00
2023-03-22T07:02:19.019Z,50.80
2023-03-22T07:04:54.288Z,49.40
2023-03-22T07:07:25.085Z,48.60
2023-03-22T07:09:59.453Z,50.00
2023-03-22T07:12:33.857Z,51.20
2023-03-22T07:15:08.988Z,48.10
2023-03-22T07:17:43.786Z,45.80
2023-03-22T07:20:20.349Z,50.00
2023-03-22T07:22:54.498Z,48.60
2023-03-22T07:25:30.670Z,48.60
2023-03-22T07:28:09.821Z,49.90
2023-03-22T07:30:44.449Z,55.20
2023-03-22T07:33:19.280Z,48.80
2023-03-22T07:35:52.902Z,47.00
2023-03-22T07:38:27.234Z,50.00
2023-03-22T07:41:00.490Z,43.80
2023-03-22T07:43:29.963Z,44.90
2023-03-22T07:46:01.200Z,44.60
2023-03-22T07:48:35.018Z,45.90
2023-03-22T07:51:11.120Z,47.70
2023-03-22T07:53:46.531Z,47.40
2023-03-22T07:56:18.805Z,48.30
2023-03-22T07:58:50.806Z,45.70
2023-03-22T08:01:26.808Z,45.50
2023-03-22T08:03:59.904Z,47.50
2023-03-22T08:06:35.727Z,47.00
2023-03-22T08:09:12.316Z,44.10
2023-03-22T08:11:49.538Z,39.50
2023-03-22T08:14:35.839Z,46.20
2023-03-22T08:17:17.726Z,47.70
2023-03-22T08:19:58.676Z,47.60
2023-03-22T08:22:32.550Z,46.00
2023-03-22T08:25:06.071Z,41.60
2023-03-22T08:27:34.729Z,46.90
2023-03-22T08:30:06.709Z,45.00
2023-03-22T08:32:42.970Z,43.10
2023-03-22T08:35:14.272Z,40.90
2023-03-22T08:37:49.852Z,45.50
2023-03-22T08:40:25.762Z,43.00
2023-03-22T08:43:02.976Z,38.60
2023-03-22T08:45:38.982Z,40.20
2023-03-22T08:48:15.464Z,41.50
2023-03-22T08:50:49.327Z,41.30
2023-03-22T08:53:23.582Z,36.40
2023-03-22T08:55:59.769Z,36.30
2023-03-22T08:58:32.638Z,34.20
2023-03-22T09:01:07.375Z,35.20
2023-03-22T09:03:42.040Z,34.60
2023-03-22T09:06:18.281Z,36.20
2023-03-22T09:08:55.796Z,34.00
2023-03-22T09:11:30.411Z,35.60
2023-03-22T09:14:07.330Z,35.30
2023-03-22T09:16:42.386Z,38.50
2023-03-22T09:19:20.288Z,37.60
2023-03-22T09:22:01.052Z,28.90
2023-03-22T09:24:36.504Z,31.00
2023-03-22T09:27:10.799Z,31.90
2023-03-22T09:29:48.314Z,30.90
2023-03-22T09:32:29.378Z,24.40
2023-03-22T09:35:03.153Z,22.10
2023-03-22T09:37:35.971Z,25.30
2023-03-22T09:40:10.574Z,24.40
2023-03-22T09:42:57.066Z,21.10
2023-03-22T09:45:40.267Z,27.60
2023-03-22T09:48:19.458Z,25.30
2023-03-22T09:51:00.064Z,24.50
2023-03-22T09:53:35.817Z,20.20
2023-03-22T09:56:27.368Z,21.80
2023-03-22T09:59:25.705Z,23.90
2023-03-22T10:02:07.115Z,23.90
2023-03-22T10:04:50.357Z,22.10
2023-03-22T10:07:37.922Z,21.50
2023-03-22T10:10:22.243Z,20.60
2023-03-22T10:12:56.024Z,22.90
2023-03-22T10:15:47.908Z,24.20
2023-03-22T10:18:24.724Z,21.40
2023-03-22T10:21:02.583Z,22.60
2023-03-22T10:23:45.348Z,18.90
2023-03-22T10:26:27.059Z,19.00
2023-03-22T10:29:15.929Z,17.00
2023-03-22T10:31:51.091Z,17.20
2023-03-22T10:34:31.728Z,16.60
2023-03-22T10:37:09.352Z,22.50
2023-03-22T10:39:52.798Z,16.10
2023-03-22T10:42:31.981Z,16.50
2023-03-22T10:45:12.355Z,20.50
2023-03-22T10:47:52.481Z,22.70
2023-03-22T10:50:34.366Z,23.90
2023-03-22T10:53:29.905Z,20.40
2023-03-22T10:56:03.134Z,22.70
2023-03-22T10:58:40.386Z,21.10
2023-03-22T11:01:27.926Z,18.30
2023-03-22T11:04:10.987Z,22.30
2023-03-22T11:06:56.089Z,21.50
2023-03-22T11:09:29.641Z,23.50
2023-03-22T11:12:04.300Z,19.60
2023-03-22T11:14:48.810Z,21.30
2023-03-22T11:17:28.045Z,20.90
2023-03-22T11:20:07.151Z,23.30
2023-03-22T11:22:48.372Z,24.20
2023-03-22T11:25:28.945Z,24.00
2023-03-22T11:28:07.556Z,26.40
2023-03-22T11:30:44.311Z,25.80
2023-03-22T11:33:24.732Z,26.20
2023-03-22T11:36:04.048Z,26.70
2023-03-22T11:38:42.076Z,24.10
2023-03-22T11:41:34.312Z,24.90
2023-03-22T11:44:15.104Z,25.70
2023-03-22T11:47:00.676Z,27.80
2023-03-22T11:49:42.282Z,27.00
2023-03-22T11:52:30.429Z,24.50
2023-03-22T11:55:07.432Z,21.30
2023-03-22T12:00:30.081Z,27.30
2023-03-22T12:03:07.202Z,27.20
2023-03-22T12:05:44.537Z,26.90
2023-03-22T12:08:22.762Z,23.70
2023-03-22T12:11:06.548Z,25.50
2023-03-22T12:14:00.922Z,23.30
2023-03-22T12:16:43.492Z,24.50
2023-03-22T12:19:19.775Z,21.40
2023-03-22T12:21:59.405Z,22.90
2023-03-22T12:24:36.806Z,20.30
2023-03-22T12:27:34.984Z,23.00
2023-03-22T12:30:14.433Z,19.70
2023-03-22T12:32:54.176Z,19.70
2023-03-22T12:35:34.569Z,18.80
2023-03-22T12:38:25.357Z,15.10
2023-03-22T12:41:00.893Z,13.90
2023-03-22T12:43:58.924Z,13.60
2023-03-22T12:46:34.492Z,16.50
2023-03-22T12:49:36.498Z,15.20
2023-03-22T12:52:29.932Z,14.90
2023-03-22T12:55:08.450Z,13.90
2023-03-22T12:57:43.102Z,14.00
2023-03-22T13:00:19.649Z,15.50
2023-03-22T13:03:03.153Z,11.90
2023-03-22T13:05:39.831Z,9.10
2023-03-22T13:08:11.411Z,14.00
2023-03-22T13:11:05.708Z,12.90
2023-03-22T13:13:51.102Z,13.80
2023-03-22T13:16:26.187Z,16.10
2023-03-22T13:19:01.262Z,14.90
2023-03-22T13:21:39.869Z,12.30
2023-03-22T13:24:23.626Z,14.90
2023-03-22T13:27:02.585Z,12.10
2023-03-22T13:29:39.331Z,12.20
2023-03-22T13:32:34.104Z,14.30
2023-03-22T13:35:07.281Z,11.10
2023-03-22T13:37:51.436Z,14.00
2023-03-22T13:40:52.704Z,14.10
2023-03-22T13:43:29.877Z,10.80
2023-03-22T13:46:24.316Z,12.60
2023-03-22T13:49:23.126Z,10.40
2023-03-22T13:52:03.121Z,12.20
2023-03-22T13:54:47.721Z,13.40
2023-03-22T13:57:44.116Z,14.70
2023-03-22T14:00:36.294Z,11.00
2023-03-22T14:03:22.742Z,14.40
2023-03-22T14:06:17.122Z,13.30
2023-03-22T14:08:55.500Z,13.10
2023-03-22T14:11:29.817Z,13.40
2023-03-22T14:14:12.419Z,14.60
2023-03-22T14:16:49.534Z,11.40
2023-03-22T14:19:27.742Z,14.80
